Time;durP1;ratioP1;P1;durP2;ratioP2;P2;SDS_P1;SDS_P2;PMS_P1;PMS_P2;Temp;Humidity;BMP_temperature;BMP_pressure;BME280_temperature;BME280_humidity;BME280_pressure;Samples;Min_cycle;Max_cycle;Signal;HPM_P1;HPM_P2
2021/07/20 00:00:47;;;;;;;0.50;0.50;;;12.10;99.90;;;;;;5022149;28;20527;-73
2021/07/20 00:03:12;;;;;;;0.50;0.50;;;12.00;99.90;;;;;;5026695;28;20198;-71
2021/07/20 00:05:39;;;;;;;0.82;0.82;;;12.00;99.90;;;;;;5024983;28;20251;-71
2021/07/20 00:08:06;;;;;;;0.80;0.73;;;12.00;99.90;;;;;;5023963;28;20201;-71
2021/07/20 00:10:45;;;;;;;0.50;0.50;;;12.00;99.90;;;;;;5021025;28;20803;-72
2021/07/20 00:13:11;;;;;;;0.60;0.60;;;11.90;99.90;;;;;;5021495;28;20189;-70
2021/07/20 00:15:37;;;;;;;2.28;1.00;;;11.80;99.90;;;;;;5024489;28;20186;-71
2021/07/20 00:18:11;;;;;;;2.33;1.88;;;11.80;99.90;;;;;;5025406;28;20194;-71
2021/07/20 00:20:37;;;;;;;1.55;1.40;;;11.80;99.90;;;;;;5020520;28;20197;-71
2021/07/20 00:23:05;;;;;;;0.50;0.50;;;11.80;99.90;;;;;;5023636;28;20219;-71
2021/07/20 00:25:30;;;;;;;0.57;0.57;;;11.80;99.90;;;;;;5023152;28;20213;-71
2021/07/20 00:27:57;;;;;;;0.65;0.65;;;11.80;99.90;;;;;;5020609;28;20523;-72
2021/07/20 00:30:23;;;;;;;0.52;0.52;;;11.80;99.90;;;;;;5022726;28;20301;-72
2021/07/20 00:32:49;;;;;;;0.75;0.75;;;11.80;99.90;;;;;;5024239;28;20281;-70
2021/07/20 00:35:15;;;;;;;0.63;0.63;;;11.80;99.90;;;;;;5023843;28;20197;-72
2021/07/20 00:37:41;;;;;;;0.50;0.50;;;11.80;99.90;;;;;;5023416;28;20217;-70
2021/07/20 00:40:10;;;;;;;0.50;0.50;;;11.80;99.90;;;;;;5026337;28;20679;-71
2021/07/20 00:42:36;;;;;;;0.60;0.60;;;11.80;99.90;;;;;;5024158;28;20202;-71
2021/07/20 00:45:07;;;;;;;0.50;0.50;;;11.80;99.90;;;;;;5025742;28;20202;-70
2021/07/20 00:47:33;;;;;;;0.50;0.50;;;11.80;99.90;;;;;;5025706;28;20557;-71
2021/07/20 00:49:59;;;;;;;0.80;0.80;;;11.80;99.90;;;;;;5025249;28;20203;-70
2021/07/20 00:52:24;;;;;;;0.50;0.50;;;11.80;99.90;;;;;;5024557;28;20202;-71
2021/07/20 00:54:50;;;;;;;0.50;0.50;;;11.90;99.90;;;;;;5020146;28;20190;-70
2021/07/20 00:57:16;;;;;;;0.60;0.60;;;11.90;99.90;;;;;;5025219;28;20201;-71
2021/07/20 00:59:42;;;;;;;0.60;0.60;;;11.90;99.90;;;;;;5023596;28;20209;-70
2021/07/20 01:02:08;;;;;;;0.70;0.70;;;11.80;99.90;;;;;;5025599;28;20694;-71
2021/07/20 01:04:34;;;;;;;0.60;0.60;;;11.80;99.90;;;;;;5023323;23;20249;-82
2021/07/20 01:07:01;;;;;;;0.73;0.73;;;11.80;99.90;;;;;;5002477;28;20678;-83
2021/07/20 01:09:28;;;;;;;1.13;1.05;;;11.80;99.90;;;;;;5015130;28;20218;-82
2021/07/20 01:11:55;;;;;;;0.60;0.60;;;11.80;99.90;;;;;;5001382;28;20214;-82
2021/07/20 01:14:22;;;;;;;1.02;0.93;;;11.80;99.90;;;;;;5011694;28;20647;-81
2021/07/20 01:16:49;;;;;;;0.60;0.60;;;11.90;99.90;;;;;;5014017;28;20269;-82
2021/07/20 01:19:16;;;;;;;0.50;0.50;;;12.00;99.90;;;;;;5012260;28;20199;-80
2021/07/20 01:21:43;;;;;;;0.60;0.60;;;11.90;99.90;;;;;;5019641;28;20272;-83
2021/07/20 01:24:12;;;;;;;0.50;0.50;;;11.90;99.90;;;;;;5019754;28;20197;-82
2021/07/20 01:26:38;;;;;;;0.50;0.50;;;11.90;99.90;;;;;;5018611;28;20201;-83
2021/07/20 01:29:06;;;;;;;0.50;0.50;;;11.90;99.90;;;;;;5015726;28;20186;-83
2021/07/20 01:31:35;;;;;;;0.65;0.65;;;11.90;99.90;;;;;;4993907;28;20198;-82
2021/07/20 01:34:02;;;;;;;0.60;0.60;;;11.80;99.90;;;;;;5016668;28;20722;-83
2021/07/20 01:36:31;;;;;;;0.50;0.50;;;11.70;99.90;;;;;;5017957;28;20206;-82
2021/07/20 01:38:57;;;;;;;0.50;0.50;;;11.70;99.90;;;;;;5005506;28;20201;-83
2021/07/20 01:41:24;;;;;;;0.52;0.52;;;11.70;99.90;;;;;;5005431;28;20546;-82
2021/07/20 01:43:59;;;;;;;0.50;0.50;;;11.60;99.90;;;;;;5018489;28;20199;-82
2021/07/20 01:46:31;;;;;;;0.70;0.70;;;11.60;99.90;;;;;;4995614;28;20762;-83
2021/07/20 01:48:59;;;;;;;0.50;0.50;;;11.60;99.90;;;;;;5016957;28;20214;-82
2021/07/20 01:51:26;;;;;;;0.50;0.50;;;11.60;99.90;;;;;;5015901;28;20273;-81
2021/07/20 01:53:54;;;;;;;0.93;0.70;;;11.60;99.90;;;;;;5015403;28;20608;-82
2021/07/20 01:56:21;;;;;;;0.70;0.70;;;11.60;99.90;;;;;;5017254;28;20202;-82
2021/07/20 01:58:47;;;;;;;0.60;0.60;;;11.50;99.90;;;;;;5016108;28;20198;-82
2021/07/20 02:01:26;;;;;;;0.60;0.60;;;11.50;99.90;;;;;;5018998;28;20206;-82
2021/07/20 02:04:45;;;;;;;1.85;1.02;;;11.50;99.90;;;;;;5014950;28;20229;-83
2021/07/20 02:09:32;;;;;;;0.50;0.50;;;11.50;99.90;;;;;;5016215;28;20206;-82
2021/07/20 02:12:10;;;;;;;0.60;0.60;;;11.50;99.90;;;;;;4990022;28;21397;-82
2021/07/20 02:14:41;;;;;;;0.50;0.50;;;11.50;99.90;;;;;;5008622;28;21114;-81
2021/07/20 02:17:09;;;;;;;0.50;0.50;;;11.40;99.90;;;;;;5023085;28;20273;-82
2021/07/20 02:20:06;;;;;;;0.60;0.60;;;11.40;99.90;;;;;;5022189;28;20668;-83
2021/07/20 02:22:33;;;;;;;0.60;0.60;;;11.40;99.90;;;;;;4989287;28;20206;-81
2021/07/20 02:24:59;;;;;;;0.50;0.50;;;11.40;99.90;;;;;;5021344;28;20270;-82
2021/07/20 02:27:26;;;;;;;0.50;0.50;;;11.40;99.90;;;;;;5025655;28;20562;-82
2021/07/20 02:29:57;;;;;;;0.50;0.50;;;11.40;99.90;;;;;;5005601;28;20570;-82
2021/07/20 02:32:26;;;;;;;0.50;0.50;;;11.40;99.90;;;;;;5021453;28;20202;-81
2021/07/20 02:34:56;;;;;;;0.60;0.60;;;11.40;99.90;;;;;;5001686;28;20201;-82
2021/07/20 02:37:22;;;;;;;0.60;0.60;;;11.40;99.90;;;;;;5021573;28;20475;-82
2021/07/20 02:39:49;;;;;;;0.50;0.50;;;11.40;99.90;;;;;;5017947;28;20676;-82
2021/07/20 02:42:17;;;;;;;0.50;0.50;;;11.40;99.90;;;;;;5021352;28;20221;-82
2021/07/20 02:44:44;;;;;;;0.60;0.60;;;11.40;99.90;;;;;;5019735;28;20927;-82
2021/07/20 02:47:10;;;;;;;0.50;0.50;;;11.40;99.90;;;;;;5021596;28;20198;-83
2021/07/20 02:49:38;;;;;;;0.50;0.50;;;11.40;99.90;;;;;;5005102;28;20228;-82
2021/07/20 02:52:06;;;;;;;0.52;0.52;;;11.40;99.90;;;;;;5019637;28;20195;-82
2021/07/20 02:54:32;;;;;;;0.50;0.50;;;11.40;99.90;;;;;;5019311;28;20195;-82
2021/07/20 02:56:58;;;;;;;0.80;0.80;;;11.40;99.90;;;;;;5008041;28;20210;-81
2021/07/20 02:59:26;;;;;;;0.60;0.60;;;11.40;99.90;;;;;;5019595;28;20190;-82
2021/07/20 03:01:55;;;;;;;0.60;0.60;;;11.40;99.90;;;;;;5002628;28;20559;-82
2021/07/20 03:04:22;;;;;;;2.55;0.82;;;11.40;99.90;;;;;;5006077;28;20615;-82
2021/07/20 03:06:52;;;;;;;0.60;0.60;;;11.40;99.90;;;;;;5024147;28;20293;-82
2021/07/20 03:09:20;;;;;;;0.60;0.60;;;11.40;99.90;;;;;;5020616;28;20285;-81
2021/07/20 03:11:49;;;;;;;0.98;0.98;;;11.40;99.90;;;;;;5022375;28;20785;-81
2021/07/20 03:14:18;;;;;;;5.68;2.40;;;11.40;99.90;;;;;;5022511;28;20595;-82
2021/07/20 03:16:45;;;;;;;0.60;0.60;;;11.50;99.90;;;;;;5019656;28;20285;-82
2021/07/20 03:19:12;;;;;;;0.52;0.52;;;11.50;99.90;;;;;;5021791;28;20285;-81
2021/07/20 03:21:39;;;;;;;0.75;0.75;;;11.60;99.90;;;;;;5006326;28;20216;-82
2021/07/20 03:24:07;;;;;;;0.50;0.50;;;11.60;99.90;;;;;;5022398;28;20759;-82
2021/07/20 03:26:34;;;;;;;0.73;0.73;;;11.70;99.90;;;;;;5024051;28;20194;-81
2021/07/20 03:29:00;;;;;;;0.50;0.50;;;11.70;99.90;;;;;;5005328;28;20214;-81
2021/07/20 03:31:26;;;;;;;0.52;0.52;;;11.80;99.90;;;;;;5005409;28;20198;-81
2021/07/20 03:33:54;;;;;;;0.50;0.50;;;11.90;99.90;;;;;;5003396;28;20915;-81
2021/07/20 03:36:20;;;;;;;0.60;0.60;;;12.00;99.90;;;;;;5018321;28;20626;-81
2021/07/20 03:38:46;;;;;;;0.82;0.82;;;12.00;99.90;;;;;;5018958;28;20277;-81
2021/07/20 03:41:12;;;;;;;0.68;0.68;;;12.10;99.90;;;;;;5023944;28;20217;-81
2021/07/20 03:43:39;;;;;;;0.52;0.52;;;12.30;99.90;;;;;;5020016;28;20202;-81
2021/07/20 03:46:05;;;;;;;0.50;0.50;;;12.40;99.90;;;;;;5020582;28;20198;-81
2021/07/20 03:48:32;;;;;;;0.50;0.50;;;12.50;99.90;;;;;;5022304;28;20220;-81
2021/07/20 03:50:58;;;;;;;0.50;0.50;;;12.70;99.90;;;;;;5022380;28;20198;-80
2021/07/20 03:53:28;;;;;;;0.68;0.68;;;12.80;99.90;;;;;;5019883;28;20203;-80
2021/07/20 03:55:57;;;;;;;0.60;0.60;;;12.90;99.90;;;;;;5022781;28;20210;-81
2021/07/20 03:58:24;;;;;;;0.50;0.50;;;13.00;99.90;;;;;;5020151;28;20564;-79
2021/07/20 04:00:52;;;;;;;0.85;0.85;;;13.10;99.90;;;;;;5015423;28;20343;-81
2021/07/20 04:03:22;;;;;;;0.52;0.52;;;13.30;99.90;;;;;;4999852;28;20206;-81
2021/07/20 04:05:54;;;;;;;0.50;0.50;;;13.50;99.90;;;;;;5018060;28;20213;-82
2021/07/20 04:08:21;;;;;;;0.40;0.40;;;13.60;99.90;;;;;;5022302;28;20206;-82
2021/07/20 04:10:49;;;;;;;0.50;0.50;;;13.70;99.90;;;;;;5021844;28;20202;-82
2021/07/20 04:13:15;;;;;;;0.50;0.50;;;13.80;99.90;;;;;;5025778;28;20194;-82
2021/07/20 04:15:46;;;;;;;0.50;0.50;;;13.80;99.90;;;;;;5007398;28;20216;-75
2021/07/20 04:18:12;;;;;;;0.80;0.80;;;14.00;99.90;;;;;;5024727;28;20190;-75
2021/07/20 04:20:39;;;;;;;0.40;0.40;;;14.60;99.90;;;;;;5021763;28;20365;-75
2021/07/20 04:23:07;;;;;;;0.40;0.40;;;15.30;99.90;;;;;;5021294;28;20288;-75
2021/07/20 04:25:36;;;;;;;0.45;0.45;;;16.00;99.90;;;;;;5001686;28;20300;-75
2021/07/20 04:28:02;;;;;;;0.40;0.40;;;16.60;99.90;;;;;;5022335;28;20206;-75
2021/07/20 04:30:28;;;;;;;0.40;0.40;;;17.10;99.90;;;;;;5018680;28;20672;-75
2021/07/20 04:32:56;;;;;;;0.70;0.70;;;17.40;99.90;;;;;;5015782;28;20568;-75
2021/07/20 04:35:23;;;;;;;0.47;0.47;;;17.70;99.90;;;;;;5013952;28;20198;-76
2021/07/20 04:37:51;;;;;;;6.03;0.82;;;18.00;99.90;;;;;;5014660;28;20253;-76
2021/07/20 04:40:17;;;;;;;0.20;0.20;;;18.30;99.90;;;;;;5017856;28;20215;-74
2021/07/20 04:42:43;;;;;;;0.32;0.32;;;18.70;99.90;;;;;;5019669;28;20544;-76
2021/07/20 04:45:11;;;;;;;3.85;0.82;;;18.90;99.90;;;;;;5004812;28;20240;-76
2021/07/20 04:47:39;;;;;;;0.22;0.22;;;19.10;99.90;;;;;;5023603;28;20316;-75
2021/07/20 04:50:09;;;;;;;2.50;0.88;;;19.10;99.90;;;;;;5003196;28;20194;-76
2021/07/20 04:52:36;;;;;;;0.30;0.30;;;19.30;99.90;;;;;;5004368;28;20547;-77
2021/07/20 04:55:03;;;;;;;1.25;0.73;;;19.50;99.90;;;;;;5007681;28;20194;-81
2021/07/20 04:57:30;;;;;;;6.60;0.77;;;19.40;99.90;;;;;;5027737;28;20285;-82
2021/07/20 04:59:56;;;;;;;0.30;0.30;;;18.80;99.90;;;;;;5025722;28;20202;-81
2021/07/20 05:02:23;;;;;;;0.40;0.40;;;18.30;99.90;;;;;;5025915;28;20198;-81
2021/07/20 05:04:50;;;;;;;0.40;0.40;;;18.00;99.90;;;;;;5007530;28;20237;-81
2021/07/20 05:07:18;;;;;;;0.40;0.40;;;17.80;99.90;;;;;;5026233;28;20609;-81
2021/07/20 05:09:44;;;;;;;0.60;0.60;;;17.70;99.90;;;;;;5007375;28;20288;-81
2021/07/20 05:12:15;;;;;;;0.50;0.50;;;17.60;99.90;;;;;;5006785;28;20805;-82
2021/07/20 05:14:41;;;;;;;0.20;0.20;;;17.60;99.90;;;;;;5025263;28;20231;-81
2021/07/20 05:17:09;;;;;;;0.55;0.40;;;17.70;99.90;;;;;;5007837;28;20327;-81
2021/07/20 05:19:35;;;;;;;0.30;0.30;;;17.80;99.90;;;;;;5006351;28;20193;-81
2021/07/20 05:22:02;;;;;;;0.30;0.30;;;17.90;99.90;;;;;;5007973;28;20202;-81
2021/07/20 05:24:30;;;;;;;1.50;0.65;;;18.00;99.90;;;;;;5022471;28;20300;-82
2021/07/20 05:26:57;;;;;;;0.60;0.60;;;18.10;99.90;;;;;;5026118;28;20257;-81
2021/07/20 05:29:24;;;;;;;0.80;0.80;;;18.30;99.90;;;;;;5023697;28;20236;-79
2021/07/20 05:31:50;;;;;;;0.30;0.30;;;18.40;99.90;;;;;;5022766;28;20191;-81
2021/07/20 05:34:18;;;;;;;4.22;0.45;;;18.40;99.90;;;;;;5018871;28;20194;-81
2021/07/20 05:36:44;;;;;;;0.20;0.20;;;18.40;99.90;;;;;;5006609;28;20190;-81
2021/07/20 05:39:14;;;;;;;0.75;0.63;;;18.50;99.90;;;;;;5024699;28;20569;-81
2021/07/20 05:41:44;;;;;;;0.30;0.30;;;18.60;99.90;;;;;;5024128;28;20190;-81
2021/07/20 05:44:11;;;;;;;0.20;0.20;;;18.80;99.90;;;;;;5023700;28;20198;-80
2021/07/20 05:46:39;;;;;;;0.50;0.50;;;18.90;99.90;;;;;;5027873;28;20202;-81
2021/07/20 05:49:05;;;;;;;0.60;0.60;;;18.90;99.90;;;;;;5028855;28;20244;-81
2021/07/20 05:51:31;;;;;;;0.65;0.65;;;19.00;99.90;;;;;;5024509;28;20732;-81
2021/07/20 05:53:58;;;;;;;0.57;0.57;;;19.10;99.90;;;;;;5010372;28;20190;-81
2021/07/20 05:56:30;;;;;;;0.35;0.35;;;19.00;99.90;;;;;;5008294;28;20207;-81
2021/07/20 05:59:00;;;;;;;0.28;0.28;;;19.00;99.90;;;;;;5025252;28;20232;-81
2021/07/20 06:01:29;;;;;;;1.15;0.60;;;18.90;99.90;;;;;;5026466;28;20202;-81
2021/07/20 06:03:59;;;;;;;0.30;0.30;;;18.80;99.90;;;;;;5005260;28;20281;-81
2021/07/20 06:06:29;;;;;;;0.40;0.40;;;18.90;99.90;;;;;;4991811;28;20711;-82
2021/07/20 06:08:57;;;;;;;0.40;0.40;;;19.00;99.90;;;;;;5006797;28;20211;-81
2021/07/20 06:11:24;;;;;;;0.60;0.60;;;19.10;99.90;;;;;;5007426;28;20214;-81
2021/07/20 06:13:53;;;;;;;0.30;0.30;;;19.10;99.90;;;;;;5007685;28;20198;-82
2021/07/20 06:16:22;;;;;;;0.28;0.28;;;19.30;99.90;;;;;;5008449;28;20195;-80
2021/07/20 06:18:48;;;;;;;14.80;0.50;;;19.50;99.90;;;;;;5008247;28;20207;-80
2021/07/20 06:21:16;;;;;;;0.30;0.30;;;19.60;99.90;;;;;;4989865;28;20225;-81
2021/07/20 06:23:47;;;;;;;1.98;1.20;;;19.80;99.90;;;;;;5008902;28;20199;-81
2021/07/20 06:26:32;;;;;;;0.20;0.20;;;19.80;99.90;;;;;;5007579;28;20913;-81
2021/07/20 06:29:02;;;;;;;0.47;0.30;;;19.80;99.90;;;;;;5009385;28;20241;-81
2021/07/20 06:31:29;;;;;;;0.35;0.35;;;19.60;99.90;;;;;;4987535;28;20211;-81
2021/07/20 06:33:56;;;;;;;0.80;0.40;;;19.60;99.90;;;;;;5007698;28;20205;-81
2021/07/20 06:36:25;;;;;;;0.38;0.38;;;19.50;99.90;;;;;;4989215;28;20194;-81
2021/07/20 06:38:53;;;;;;;0.77;0.57;;;19.40;99.90;;;;;;5008419;28;20199;-81
2021/07/20 06:41:19;;;;;;;0.30;0.30;;;19.40;99.90;;;;;;5006794;28;20584;-81
2021/07/20 06:43:46;;;;;;;0.22;0.22;;;19.40;99.90;;;;;;5007534;28;20240;-81
2021/07/20 06:46:13;;;;;;;0.30;0.30;;;19.30;99.90;;;;;;4990265;28;20597;-81
2021/07/20 06:48:43;;;;;;;0.30;0.30;;;19.20;99.90;;;;;;5007220;28;20214;-80
2021/07/20 06:51:09;;;;;;;0.82;0.40;;;19.00;99.90;;;;;;5007377;28;20245;-82
2021/07/20 06:53:34;;;;;;;0.40;0.40;;;18.90;99.90;;;;;;4989662;28;20199;-81
2021/07/20 06:56:05;;;;;;;2.17;1.05;;;18.80;99.90;;;;;;5004732;28;20260;-81
2021/07/20 06:58:33;;;;;;;0.50;0.50;;;18.80;99.90;;;;;;5006462;28;20221;-81
2021/07/20 07:01:01;;;;;;;0.30;0.30;;;18.90;99.90;;;;;;5007463;28;20735;-81
2021/07/20 07:03:37;;;;;;;0.40;0.40;;;19.00;99.90;;;;;;4991269;28;20484;-81
2021/07/20 07:06:04;;;;;;;0.30;0.30;;;19.30;99.90;;;;;;5028595;28;20202;-82
2021/07/20 07:08:31;;;;;;;0.38;0.35;;;19.60;99.90;;;;;;5027552;28;20696;-81
2021/07/20 07:10:58;;;;;;;0.32;0.32;;;19.80;99.90;;;;;;5026457;28;20729;-82
2021/07/20 07:13:27;;;;;;;0.30;0.30;;;19.70;99.90;;;;;;5009829;28;20194;-79
2021/07/20 07:15:54;;;;;;;0.40;0.40;;;19.40;99.90;;;;;;5009339;28;20602;-81
2021/07/20 07:18:21;;;;;;;0.20;0.20;;;19.30;99.90;;;;;;5026503;28;20194;-81
2021/07/20 07:20:50;;;;;;;0.55;0.40;;;19.60;99.90;;;;;;5026710;28;20206;-82
2021/07/20 07:23:17;;;;;;;0.40;0.40;;;19.80;99.90;;;;;;5025346;28;20296;-81
2021/07/20 07:25:51;;;;;;;0.30;0.30;;;19.70;99.90;;;;;;5026865;28;20217;-81
2021/07/20 07:28:19;;;;;;;0.50;0.50;;;19.40;99.90;;;;;;5026699;28;20629;-82
2021/07/20 07:30:47;;;;;;;0.52;0.50;;;19.30;99.90;;;;;;5025334;28;20268;-80
2021/07/20 07:33:13;;;;;;;0.30;0.30;;;19.20;99.90;;;;;;5026131;28;20198;-81
2021/07/20 07:35:39;;;;;;;0.47;0.47;;;19.30;99.90;;;;;;5026787;28;20754;-82
2021/07/20 07:38:06;;;;;;;0.55;0.32;;;19.30;99.90;;;;;;5024052;28;20190;-81
2021/07/20 07:40:32;;;;;;;0.25;0.25;;;19.50;99.90;;;;;;5004614;28;20688;-82
2021/07/20 07:43:02;;;;;;;0.32;0.32;;;19.90;99.90;;;;;;5027103;28;20209;-81
2021/07/20 07:45:28;;;;;;;0.32;0.32;;;20.00;99.90;;;;;;5024279;28;20248;-81
2021/07/20 07:47:55;;;;;;;0.40;0.40;;;20.10;99.90;;;;;;5027467;28;20221;-81
2021/07/20 07:50:21;;;;;;;0.52;0.50;;;20.10;99.90;;;;;;5007289;28;20281;-81
2021/07/20 07:52:48;;;;;;;0.40;0.35;;;19.90;99.90;;;;;;5027339;28;20221;-82
2021/07/20 07:55:14;;;;;;;0.25;0.25;;;19.90;99.90;;;;;;5023121;28;20301;-82
2021/07/20 07:57:43;;;;;;;0.55;0.55;;;19.80;99.90;;;;;;5026352;28;20206;-81
2021/07/20 08:00:09;;;;;;;0.30;0.30;;;19.80;99.90;;;;;;5024519;28;20289;-81
2021/07/20 08:02:38;;;;;;;0.30;0.30;;;19.90;99.90;;;;;;5022950;28;20194;-82
2021/07/20 08:05:06;;;;;;;0.75;0.50;;;20.10;99.90;;;;;;5022288;28;20333;-80
2021/07/20 08:07:33;;;;;;;0.43;0.38;;;20.20;99.90;;;;;;5026535;28;20212;-81
2021/07/20 08:10:00;;;;;;;0.30;0.30;;;20.20;99.90;;;;;;5025363;28;20206;-82
2021/07/20 08:12:28;;;;;;;0.40;0.40;;;20.10;99.90;;;;;;5026174;28;20209;-81
2021/07/20 08:14:54;;;;;;;0.30;0.30;;;20.00;99.90;;;;;;5022411;28;20210;-79
2021/07/20 08:17:22;;;;;;;0.30;0.30;;;19.90;99.90;;;;;;5008062;28;20198;-81
2021/07/20 08:19:49;;;;;;;0.30;0.30;;;19.80;99.90;;;;;;5024929;28;20202;-81
2021/07/20 08:22:17;;;;;;;0.25;0.25;;;20.00;99.90;;;;;;5026108;28;20225;-81
2021/07/20 08:24:54;;;;;;;0.43;0.43;;;20.50;99.90;;;;;;5022497;28;20293;-82
2021/07/20 08:27:45;;;;;;;0.30;0.30;;;21.20;99.90;;;;;;5007154;28;20210;-82
2021/07/20 08:30:13;;;;;;;0.40;0.40;;;21.60;99.90;;;;;;5022499;28;20268;-82
2021/07/20 08:32:55;;;;;;;0.20;0.20;;;21.50;99.90;;;;;;5025951;28;20197;-82
2021/07/20 08:35:26;;;;;;;0.63;0.47;;;21.70;99.90;;;;;;5024692;28;20214;-82
2021/07/20 08:37:53;;;;;;;0.20;0.20;;;21.80;99.90;;;;;;5026442;28;20551;-82
2021/07/20 08:40:34;;;;;;;0.43;0.38;;;21.90;99.90;;;;;;5006969;28;20212;-82
2021/07/20 08:43:24;;;;;;;0.22;0.22;;;22.00;99.90;;;;;;5024295;28;20198;-81
2021/07/20 08:46:21;;;;;;;0.25;0.25;;;22.20;99.90;;;;;;5023211;28;20201;-82
2021/07/20 08:49:07;;;;;;;0.57;0.57;;;22.40;99.90;;;;;;5024655;28;20209;-82
2021/07/20 08:51:56;;;;;;;0.22;0.22;;;22.20;99.90;;;;;;5006316;28;20190;-81
2021/07/20 08:54:29;;;;;;;0.40;0.40;;;22.30;99.90;;;;;;5022743;28;20312;-81
2021/07/20 08:57:01;;;;;;;1.08;0.30;;;22.60;99.90;;;;;;5024005;28;20194;-79
2021/07/20 08:59:54;;;;;;;0.45;0.45;;;22.60;99.90;;;;;;5022159;28;20198;-81
2021/07/20 09:02:23;;;;;;;0.30;0.30;;;22.90;99.90;;;;;;5023870;28;20602;-81
2021/07/20 09:05:09;;;;;;;1.23;0.43;;;22.90;99.90;;;;;;5018146;28;20257;-81
2021/07/20 09:07:43;;;;;;;1.00;0.75;;;22.90;99.90;;;;;;5009028;28;20204;-81
2021/07/20 09:10:12;;;;;;;0.20;0.20;;;23.00;99.90;;;;;;5007275;28;20221;-81
2021/07/20 09:12:44;;;;;;;0.20;0.20;;;23.30;99.90;;;;;;5025071;28;20213;-81
2021/07/20 09:15:15;;;;;;;0.55;0.55;;;23.60;99.90;;;;;;5024667;28;20205;-81
2021/07/20 09:18:06;;;;;;;0.30;0.30;;;23.70;99.90;;;;;;5004334;28;20194;-81
2021/07/20 09:20:39;;;;;;;0.20;0.20;;;23.70;99.90;;;;;;5011023;28;20212;-81
2021/07/20 09:23:30;;;;;;;0.52;0.52;;;23.70;99.90;;;;;;5029487;28;20554;-80
2021/07/20 09:26:08;;;;;;;0.20;0.20;;;24.00;99.70;;;;;;5028333;28;20280;-81
2021/07/20 09:29:15;;;;;;;1.40;0.98;;;24.30;99.90;;;;;;5027162;28;20255;-81
2021/07/20 09:31:46;;;;;;;0.52;0.30;;;24.70;98.40;;;;;;4952923;28;20571;-81
2021/07/20 09:34:21;;;;;;;0.30;0.30;;;24.90;95.40;;;;;;4955624;28;20258;-81
2021/07/20 09:37:06;;;;;;;0.10;0.10;;;24.90;96.60;;;;;;4958783;28;20212;-82
2021/07/20 09:39:59;;;;;;;0.10;0.10;;;24.90;94.10;;;;;;4953285;28;20216;-81
2021/07/20 09:42:25;;;;;;;0.20;0.20;;;25.30;96.00;;;;;;4938957;28;20597;-82
2021/07/20 09:45:01;;;;;;;0.75;0.30;;;25.50;94.60;;;;;;4954042;28;20235;-81
2021/07/20 09:47:40;;;;;;;0.20;0.20;;;25.50;94.20;;;;;;4955363;28;20588;-81
2021/07/20 09:50:16;;;;;;;0.52;0.35;;;25.70;94.60;;;;;;4956138;28;20208;-81
2021/07/20 09:53:19;;;;;;;0.73;0.35;;;25.90;92.70;;;;;;4938763;29;20251;-81
2021/07/20 09:56:16;;;;;;;0.13;0.13;;;25.90;90.00;;;;;;4938182;29;20203;-80
2021/07/20 09:59:18;;;;;;;0.15;0.15;;;25.90;89.60;;;;;;4932931;28;20572;-81
2021/07/20 10:01:52;;;;;;;0.20;0.20;;;25.40;84.70;;;;;;4938472;28;20878;-81
2021/07/20 10:04:28;;;;;;;0.47;0.40;;;25.00;88.00;;;;;;4927865;28;20237;-81
2021/07/20 10:07:06;;;;;;;0.40;0.40;;;25.00;89.00;;;;;;5009371;28;20202;-81
2021/07/20 10:09:53;;;;;;;0.60;0.60;;;24.90;86.50;;;;;;4990944;28;20201;-81
2021/07/20 10:12:31;;;;;;;0.20;0.20;;;24.70;88.50;;;;;;5008352;28;20210;-81
2021/07/20 10:15:07;;;;;;;0.20;0.20;;;24.30;90.40;;;;;;5007590;28;20608;-81
2021/07/20 10:17:59;;;;;;;0.30;0.30;;;23.80;87.40;;;;;;4990381;28;20328;-81
2021/07/20 10:20:35;;;;;;;0.20;0.20;;;24.10;90.30;;;;;;5003166;28;20223;-81
2021/07/20 10:23:02;;;;;;;0.35;0.35;;;24.10;91.10;;;;;;4991537;28;20732;-80
2021/07/20 10:26:03;;;;;;;0.40;0.40;;;24.50;90.60;;;;;;5009908;28;20218;-81
2021/07/20 10:28:40;;;;;;;0.15;0.15;;;25.10;88.80;;;;;;5002655;28;20244;-80
2021/07/20 10:31:11;;;;;;;0.20;0.20;;;25.30;85.70;;;;;;5006125;28;20286;-81
2021/07/20 10:34:05;;;;;;;0.20;0.20;;;25.40;82.30;;;;;;5007023;28;20293;-81
2021/07/20 10:36:47;;;;;;;0.30;0.30;;;25.30;79.20;;;;;;5006548;28;20921;-81
2021/07/20 10:39:19;;;;;;;0.80;0.52;;;25.50;82.00;;;;;;5007518;28;20202;-81
2021/07/20 10:42:07;;;;;;;0.30;0.30;;;25.40;83.60;;;;;;5005122;28;20195;-81
2021/07/20 10:44:52;;;;;;;0.10;0.10;;;25.50;82.10;;;;;;4979900;28;20585;-81
2021/07/20 10:47:24;;;;;;;0.30;0.30;;;25.70;83.00;;;;;;5002454;28;20211;-80
2021/07/20 10:50:02;;;;;;;0.30;0.30;;;26.10;82.20;;;;;;5008023;28;20277;-81
2021/07/20 10:52:42;;;;;;;0.80;0.40;;;26.50;83.50;;;;;;5012109;28;20221;-80
2021/07/20 10:55:21;;;;;;;0.10;0.10;;;26.60;76.80;;;;;;4990832;28;20200;-81
2021/07/20 10:57:57;;;;;;;1.23;0.70;;;26.50;80.50;;;;;;4993256;28;20245;-81
2021/07/20 11:00:29;;;;;;;0.45;0.45;;;26.70;83.10;;;;;;4983464;28;20252;-81
2021/07/20 11:03:18;;;;;;;0.10;0.10;;;26.10;78.50;;;;;;5001970;28;20269;-81
2021/07/20 11:05:50;;;;;;;0.50;0.45;;;25.40;82.90;;;;;;5009604;28;20434;-81
2021/07/20 11:08:17;;;;;;;0.55;0.25;;;25.30;80.60;;;;;;5021619;28;20198;-81
2021/07/20 11:10:54;;;;;;;0.10;0.10;;;25.50;85.10;;;;;;5022806;28;20787;-81
2021/07/20 11:13:26;;;;;;;0.40;0.40;;;25.60;77.50;;;;;;5025788;28;20284;-80
2021/07/20 11:15:54;;;;;;;0.20;0.20;;;26.10;78.20;;;;;;5006934;28;20674;-81
2021/07/20 11:18:24;;;;;;;0.20;0.20;;;26.30;77.30;;;;;;5026880;28;20204;-81
2021/07/20 11:20:51;;;;;;;0.10;0.10;;;26.70;76.60;;;;;;5009488;28;20248;-81
2021/07/20 11:23:19;;;;;;;0.80;0.50;;;27.00;75.80;;;;;;5026088;28;20656;-81
2021/07/20 11:25:47;;;;;;;0.20;0.20;;;26.90;72.00;;;;;;5026463;28;20198;-80
2021/07/20 11:28:14;;;;;;;0.10;0.10;;;26.30;73.80;;;;;;5026259;28;20243;-81
2021/07/20 11:30:43;;;;;;;0.20;0.20;;;26.30;73.30;;;;;;5008349;28;20651;-80
2021/07/20 11:33:16;;;;;;;0.32;0.20;;;26.10;75.60;;;;;;5025371;28;20202;-81
2021/07/20 11:35:45;;;;;;;0.32;0.32;;;26.50;72.70;;;;;;5008496;28;20220;-81
2021/07/20 11:38:14;;;;;;;0.13;0.13;;;26.80;76.90;;;;;;5007929;28;20544;-81
2021/07/20 11:41:06;;;;;;;0.20;0.20;;;27.30;76.50;;;;;;5025758;28;20197;-81
2021/07/20 11:43:35;;;;;;;0.10;0.10;;;27.20;69.90;;;;;;5024441;28;20202;-80
2021/07/20 11:46:07;;;;;;;0.20;0.20;;;27.10;71.60;;;;;;5026349;28;20236;-81
2021/07/20 11:48:42;;;;;;;0.00;0.00;;;27.10;79.00;;;;;;5006422;28;20509;-81
2021/07/20 11:51:19;;;;;;;0.10;0.10;;;27.30;75.10;;;;;;5025682;28;20228;-81
2021/07/20 11:54:12;;;;;;;0.20;0.17;;;27.50;72.60;;;;;;5007510;28;20233;-81
2021/07/20 11:56:58;;;;;;;0.10;0.10;;;28.30;72.40;;;;;;5022501;28;20209;-81
2021/07/20 11:59:55;;;;;;;0.10;0.10;;;28.20;68.30;;;;;;5022432;28;20211;-80
2021/07/20 12:02:36;;;;;;;0.45;0.35;;;27.90;68.40;;;;;;5023705;28;20201;-81
2021/07/20 12:05:39;;;;;;;0.70;0.30;;;27.20;70.60;;;;;;5025935;28;20247;-80
2021/07/20 12:08:31;;;;;;;0.10;0.10;;;27.10;71.90;;;;;;5026436;28;20205;-80
2021/07/20 12:11:21;;;;;;;0.45;0.43;;;27.00;71.50;;;;;;5026352;28;20201;-81
2021/07/20 12:13:48;;;;;;;0.10;0.10;;;26.40;74.40;;;;;;5007611;28;20259;-80
2021/07/20 12:16:15;;;;;;;0.10;0.10;;;26.40;74.60;;;;;;5026356;28;20197;-80
2021/07/20 12:18:55;;;;;;;0.10;0.10;;;26.60;74.40;;;;;;5023144;28;20215;-80
2021/07/20 12:21:28;;;;;;;0.40;0.40;;;26.90;78.50;;;;;;5008592;28;20597;-81
2021/07/20 12:23:57;;;;;;;0.03;0.03;;;27.10;71.80;;;;;;5023736;28;20197;-80
2021/07/20 12:26:26;;;;;;;0.30;0.20;;;27.30;73.20;;;;;;5008046;28;20328;-81
2021/07/20 12:28:54;;;;;;;0.10;0.10;;;27.10;72.60;;;;;;5027592;28;20671;-81
2021/07/20 12:31:20;;;;;;;0.35;0.35;;;26.60;69.80;;;;;;5021599;28;20194;-80
2021/07/20 12:33:47;;;;;;;0.20;0.20;;;26.70;77.10;;;;;;5024502;28;20210;-81
2021/07/20 12:36:14;;;;;;;0.10;0.10;;;26.70;73.50;;;;;;5007375;28;20607;-81
2021/07/20 12:38:40;;;;;;;0.10;0.10;;;26.20;71.80;;;;;;5024248;28;20210;-81
2021/07/20 12:41:14;;;;;;;0.22;0.22;;;25.70;72.70;;;;;;5007769;28;20213;-81
2021/07/20 12:43:43;;;;;;;0.13;0.13;;;25.70;76.30;;;;;;5024895;28;20197;-81
2021/07/20 12:46:14;;;;;;;0.20;0.20;;;25.20;72.70;;;;;;5025356;28;20202;-81
2021/07/20 12:48:53;;;;;;;0.80;0.32;;;25.10;77.20;;;;;;5007773;28;20206;-81
2021/07/20 12:51:22;;;;;;;0.50;0.50;;;25.40;77.40;;;;;;5007071;28;20194;-81
2021/07/20 12:53:50;;;;;;;0.10;0.10;;;25.80;76.30;;;;;;5006474;28;20196;-81
2021/07/20 12:56:30;;;;;;;0.10;0.10;;;26.00;75.50;;;;;;5022218;28;20198;-80
2021/07/20 12:59:04;;;;;;;0.10;0.10;;;26.40;74.50;;;;;;5023978;28;20193;-81
2021/07/20 13:01:32;;;;;;;0.10;0.10;;;26.90;73.40;;;;;;5021811;28;20323;-80
2021/07/20 13:04:00;;;;;;;0.10;0.10;;;27.30;71.20;;;;;;4997511;28;20708;-80
2021/07/20 13:06:26;;;;;;;0.10;0.10;;;27.30;66.50;;;;;;5006516;28;20203;-80
2021/07/20 13:08:52;;;;;;;0.85;0.30;;;27.10;70.40;;;;;;5002973;28;20217;-81
2021/07/20 13:11:19;;;;;;;0.10;0.10;;;27.30;69.00;;;;;;5006260;28;20264;-81